SWDO2: Cottonwood Ck, Seward

Data processed at Wed Jun 16 2021 23:29


All information presented herein is the property of the government of the United States of America and may be revised or deleted at any time without prior notice.
Dissemination of this information without the expressed written consent of the Public Affairs Office, Tulsa District U.S. Army Corps of Engineers is strictly prohibited.
These data are gathered electronically and, as presented, have not undergone any form of quality control. These data are not guaranteed to be valid or correct.
Go to home page.
Go to station list.
Go to home page.

Upstream stations:

Downstream station:
Previous Day
Next Day
Current Day
    
SHEF ID:       SWDO2     Cottonwood Creek near Seward, OK
STATION TYPE:  
Regulating: Stage =    30.00, Flow =    10884

               PRECIP     STAGE  RIV-FLOW  BAT-LOAD
                   in        ft       cfs      volt
              Ccp-Rev   Ccp-Rev   Ccp-Rev   Ccp-Rev
(US/Central)
06/16 00:00      0.00      4.48        97     12.41
06/16 01:00      0.00      4.47        96     12.33
06/16 02:00      0.00      4.47        96     12.33
06/16 03:00      0.00      4.47        96     12.33
06/16 04:00      0.00      4.49        98     12.33
06/16 05:00      0.00      4.48        97     12.33
06/16 06:00      0.00      4.48        97     12.25
06/16 07:00      0.00      4.50        99     12.25
06/16 08:00      0.00      4.49        98     12.49
06/16 09:00      0.00      4.50        99     13.05
06/16 10:00      0.00      4.51       100     13.37
06/16 11:00      0.00      4.52       101     13.29
06/16 12:00      0.00      4.51       100     13.29
06/16 13:00      0.00      4.52       101     13.13
06/16 14:00      0.00      4.53       102     13.05
06/16 15:00      0.00      4.54       103     12.89
06/16 16:00      0.00      4.52       101     12.81
06/16 17:00      0.00      4.50        99     12.89
06/16 18:00      0.00      4.50        99     12.89
06/16 19:00      0.00      4.50        99     12.81
06/16 20:00      0.00      4.49        98     12.65
06/16 21:00      0.00      4.46        95     12.41
06/16 22:00      0.00      4.41        90     12.41
06/16 23:00      ----      ----      ----      ----